sensor_id;sensor_type;location;lat;lon;timestamp;P1;durP1;ratioP1;P2;durP2;ratioP2
51907;SDS011;39320;53.214;6.556;2022-07-06T00:02:05;3.38;;;1.23;;
51907;SDS011;39320;53.214;6.556;2022-07-06T00:04:31;4.50;;;0.80;;
51907;SDS011;39320;53.214;6.556;2022-07-06T00:06:57;2.33;;;0.85;;
51907;SDS011;39320;53.214;6.556;2022-07-06T00:09:22;5.38;;;1.00;;
51907;SDS011;39320;53.214;6.556;2022-07-06T00:11:48;1.75;;;1.23;;
51907;SDS011;39320;53.214;6.556;2022-07-06T00:14:14;5.22;;;1.02;;
51907;SDS011;39320;53.214;6.556;2022-07-06T00:16:40;6.03;;;1.10;;
51907;SDS011;39320;53.214;6.556;2022-07-06T00:19:05;3.33;;;0.90;;
51907;SDS011;39320;53.214;6.556;2022-07-06T00:21:31;2.47;;;1.02;;
51907;SDS011;39320;53.214;6.556;2022-07-06T00:23:57;4.70;;;0.90;;
51907;SDS011;39320;53.214;6.556;2022-07-06T00:26:23;3.67;;;1.23;;
51907;SDS011;39320;53.214;6.556;2022-07-06T00:28:49;3.67;;;0.80;;
51907;SDS011;39320;53.214;6.556;2022-07-06T00:31:15;2.85;;;1.00;;
51907;SDS011;39320;53.214;6.556;2022-07-06T00:33:41;5.15;;;0.90;;
51907;SDS011;39320;53.214;6.556;2022-07-06T00:36:06;1.73;;;0.88;;
51907;SDS011;39320;53.214;6.556;2022-07-06T00:38:32;3.75;;;1.10;;
51907;SDS011;39320;53.214;6.556;2022-07-06T00:40:58;5.30;;;1.00;;
51907;SDS011;39320;53.214;6.556;2022-07-06T00:43:24;7.00;;;1.35;;
51907;SDS011;39320;53.214;6.556;2022-07-06T00:45:49;4.38;;;1.15;;
51907;SDS011;39320;53.214;6.556;2022-07-06T00:48:15;2.85;;;1.02;;
51907;SDS011;39320;53.214;6.556;2022-07-06T00:50:41;3.08;;;1.02;;
51907;SDS011;39320;53.214;6.556;2022-07-06T00:53:08;2.45;;;1.08;;
51907;SDS011;39320;53.214;6.556;2022-07-06T00:55:35;3.95;;;1.10;;
51907;SDS011;39320;53.214;6.556;2022-07-06T00:58:04;2.92;;;1.20;;
51907;SDS011;39320;53.214;6.556;2022-07-06T01:00:34;3.80;;;1.20;;
51907;SDS011;39320;53.214;6.556;2022-07-06T01:03:01;3.65;;;1.05;;
51907;SDS011;39320;53.214;6.556;2022-07-06T01:05:27;2.63;;;1.30;;
51907;SDS011;39320;53.214;6.556;2022-07-06T01:07:53;3.50;;;1.40;;
51907;SDS011;39320;53.214;6.556;2022-07-06T01:10:20;5.38;;;1.45;;
51907;SDS011;39320;53.214;6.556;2022-07-06T01:12:47;4.18;;;1.00;;
51907;SDS011;39320;53.214;6.556;2022-07-06T01:15:14;5.03;;;1.30;;
51907;SDS011;39320;53.214;6.556;2022-07-06T01:17:45;6.60;;;1.40;;
51907;SDS011;39320;53.214;6.556;2022-07-06T01:20:13;5.28;;;1.10;;
51907;SDS011;39320;53.214;6.556;2022-07-06T01:22:43;4.28;;;1.42;;
51907;SDS011;39320;53.214;6.556;2022-07-06T01:25:10;5.05;;;1.40;;
51907;SDS011;39320;53.214;6.556;2022-07-06T01:27:36;2.75;;;1.50;;
51907;SDS011;39320;53.214;6.556;2022-07-06T01:30:11;4.03;;;1.40;;
51907;SDS011;39320;53.214;6.556;2022-07-06T01:32:39;4.63;;;1.42;;
51907;SDS011;39320;53.214;6.556;2022-07-06T01:35:06;3.97;;;1.20;;
51907;SDS011;39320;53.214;6.556;2022-07-06T01:37:33;3.67;;;1.17;;
51907;SDS011;39320;53.214;6.556;2022-07-06T01:40:00;4.22;;;1.02;;
51907;SDS011;39320;53.214;6.556;2022-07-06T01:42:26;3.33;;;1.00;;
51907;SDS011;39320;53.214;6.556;2022-07-06T01:44:53;3.80;;;1.35;;
51907;SDS011;39320;53.214;6.556;2022-07-06T01:47:19;1.90;;;0.88;;
51907;SDS011;39320;53.214;6.556;2022-07-06T01:49:45;3.28;;;1.27;;
51907;SDS011;39320;53.214;6.556;2022-07-06T01:52:11;4.30;;;1.05;;
51907;SDS011;39320;53.214;6.556;2022-07-06T01:54:37;4.32;;;1.08;;
51907;SDS011;39320;53.214;6.556;2022-07-06T01:57:03;5.07;;;0.98;;
51907;SDS011;39320;53.214;6.556;2022-07-06T01:59:29;4.25;;;1.00;;
51907;SDS011;39320;53.214;6.556;2022-07-06T02:01:55;5.00;;;1.13;;
51907;SDS011;39320;53.214;6.556;2022-07-06T02:04:21;4.28;;;0.90;;
51907;SDS011;39320;53.214;6.556;2022-07-06T02:06:47;3.83;;;0.80;;
51907;SDS011;39320;53.214;6.556;2022-07-06T02:09:12;3.88;;;0.98;;
51907;SDS011;39320;53.214;6.556;2022-07-06T02:11:38;2.47;;;0.75;;
51907;SDS011;39320;53.214;6.556;2022-07-06T02:14:04;4.97;;;0.90;;
51907;SDS011;39320;53.214;6.556;2022-07-06T02:16:29;2.35;;;0.70;;
51907;SDS011;39320;53.214;6.556;2022-07-06T02:18:55;4.57;;;1.27;;
51907;SDS011;39320;53.214;6.556;2022-07-06T02:21:21;1.50;;;0.80;;
51907;SDS011;39320;53.214;6.556;2022-07-06T02:23:47;4.75;;;1.00;;
51907;SDS011;39320;53.214;6.556;2022-07-06T02:26:13;4.32;;;0.90;;
51907;SDS011;39320;53.214;6.556;2022-07-06T02:28:38;3.95;;;1.48;;
51907;SDS011;39320;53.214;6.556;2022-07-06T02:31:04;2.45;;;0.80;;
51907;SDS011;39320;53.214;6.556;2022-07-06T02:33:30;2.65;;;1.20;;
51907;SDS011;39320;53.214;6.556;2022-07-06T02:35:56;5.25;;;1.40;;
51907;SDS011;39320;53.214;6.556;2022-07-06T02:38:22;4.32;;;0.90;;
51907;SDS011;39320;53.214;6.556;2022-07-06T02:40:47;5.75;;;1.77;;
51907;SDS011;39320;53.214;6.556;2022-07-06T02:43:13;4.32;;;1.00;;
51907;SDS011;39320;53.214;6.556;2022-07-06T02:45:39;9.48;;;1.52;;
51907;SDS011;39320;53.214;6.556;2022-07-06T02:48:05;2.22;;;1.20;;
51907;SDS011;39320;53.214;6.556;2022-07-06T02:50:30;2.25;;;1.23;;
51907;SDS011;39320;53.214;6.556;2022-07-06T02:52:56;3.92;;;1.25;;
51907;SDS011;39320;53.214;6.556;2022-07-06T02:55:23;4.93;;;1.25;;
51907;SDS011;39320;53.214;6.556;2022-07-06T02:57:49;3.53;;;1.15;;
51907;SDS011;39320;53.214;6.556;2022-07-06T03:00:15;5.38;;;1.45;;
51907;SDS011;39320;53.214;6.556;2022-07-06T03:02:41;4.32;;;1.40;;
51907;SDS011;39320;53.214;6.556;2022-07-06T03:05:07;4.60;;;1.55;;
51907;SDS011;39320;53.214;6.556;2022-07-06T03:07:33;7.38;;;1.30;;
51907;SDS011;39320;53.214;6.556;2022-07-06T03:09:59;3.10;;;1.50;;
51907;SDS011;39320;53.214;6.556;2022-07-06T03:12:25;5.15;;;1.50;;
51907;SDS011;39320;53.214;6.556;2022-07-06T03:14:50;6.22;;;1.40;;
51907;SDS011;39320;53.214;6.556;2022-07-06T03:17:16;5.68;;;1.48;;
51907;SDS011;39320;53.214;6.556;2022-07-06T03:19:42;2.85;;;1.38;;
51907;SDS011;39320;53.214;6.556;2022-07-06T03:22:07;2.70;;;1.35;;
51907;SDS011;39320;53.214;6.556;2022-07-06T03:24:33;3.72;;;1.13;;
51907;SDS011;39320;53.214;6.556;2022-07-06T03:26:59;4.47;;;1.48;;
51907;SDS011;39320;53.214;6.556;2022-07-06T03:29:24;4.70;;;1.52;;
51907;SDS011;39320;53.214;6.556;2022-07-06T03:31:50;3.95;;;1.23;;
51907;SDS011;39320;53.214;6.556;2022-07-06T03:34:16;3.65;;;1.38;;
51907;SDS011;39320;53.214;6.556;2022-07-06T03:36:42;4.55;;;1.23;;
51907;SDS011;39320;53.214;6.556;2022-07-06T03:39:07;5.70;;;1.38;;
51907;SDS011;39320;53.214;6.556;2022-07-06T03:41:33;5.72;;;1.70;;
51907;SDS011;39320;53.214;6.556;2022-07-06T03:43:59;4.80;;;0.90;;
51907;SDS011;39320;53.214;6.556;2022-07-06T03:46:25;2.30;;;0.80;;
51907;SDS011;39320;53.214;6.556;2022-07-06T03:48:51;4.65;;;1.10;;
51907;SDS011;39320;53.214;6.556;2022-07-06T03:51:16;3.53;;;1.45;;
51907;SDS011;39320;53.214;6.556;2022-07-06T03:53:42;3.25;;;1.45;;
51907;SDS011;39320;53.214;6.556;2022-07-06T03:56:08;3.55;;;1.65;;
51907;SDS011;39320;53.214;6.556;2022-07-06T03:58:52;4.28;;;1.33;;
51907;SDS011;39320;53.214;6.556;2022-07-06T04:01:19;5.10;;;1.58;;
51907;SDS011;39320;53.214;6.556;2022-07-06T04:03:44;3.15;;;1.80;;
51907;SDS011;39320;53.214;6.556;2022-07-06T04:06:10;3.92;;;1.15;;
51907;SDS011;39320;53.214;6.556;2022-07-06T04:08:36;5.13;;;1.40;;
51907;SDS011;39320;53.214;6.556;2022-07-06T04:11:02;4.45;;;1.60;;
51907;SDS011;39320;53.214;6.556;2022-07-06T04:13:28;2.95;;;1.27;;
51907;SDS011;39320;53.214;6.556;2022-07-06T04:15:53;3.80;;;1.17;;
51907;SDS011;39320;53.214;6.556;2022-07-06T04:18:19;5.68;;;1.05;;
51907;SDS011;39320;53.214;6.556;2022-07-06T04:20:45;3.80;;;1.23;;
51907;SDS011;39320;53.214;6.556;2022-07-06T04:23:11;5.78;;;1.40;;
51907;SDS011;39320;53.214;6.556;2022-07-06T04:25:37;4.63;;;1.20;;
51907;SDS011;39320;53.214;6.556;2022-07-06T04:28:02;4.32;;;0.98;;
51907;SDS011;39320;53.214;6.556;2022-07-06T04:30:28;3.78;;;1.20;;
51907;SDS011;39320;53.214;6.556;2022-07-06T04:32:54;3.50;;;0.82;;
51907;SDS011;39320;53.214;6.556;2022-07-06T04:35:21;3.00;;;1.10;;
51907;SDS011;39320;53.214;6.556;2022-07-06T04:37:46;3.47;;;1.13;;
51907;SDS011;39320;53.214;6.556;2022-07-06T04:40:13;4.28;;;1.00;;
51907;SDS011;39320;53.214;6.556;2022-07-06T04:42:39;5.30;;;1.20;;
51907;SDS011;39320;53.214;6.556;2022-07-06T04:45:05;4.18;;;1.10;;
51907;SDS011;39320;53.214;6.556;2022-07-06T04:47:32;4.28;;;1.10;;
51907;SDS011;39320;53.214;6.556;2022-07-06T04:49:57;5.70;;;0.90;;
51907;SDS011;39320;53.214;6.556;2022-07-06T04:52:23;3.05;;;0.90;;
51907;SDS011;39320;53.214;6.556;2022-07-06T04:54:49;3.95;;;0.98;;
51907;SDS011;39320;53.214;6.556;2022-07-06T04:57:15;3.08;;;0.73;;
51907;SDS011;39320;53.214;6.556;2022-07-06T04:59:41;3.47;;;0.70;;
51907;SDS011;39320;53.214;6.556;2022-07-06T05:02:06;3.00;;;0.63;;
51907;SDS011;39320;53.214;6.556;2022-07-06T05:04:32;2.42;;;0.60;;
51907;SDS011;39320;53.214;6.556;2022-07-06T05:06:58;1.48;;;0.63;;
51907;SDS011;39320;53.214;6.556;2022-07-06T05:09:24;2.15;;;0.50;;
51907;SDS011;39320;53.214;6.556;2022-07-06T05:11:50;1.70;;;0.60;;
51907;SDS011;39320;53.214;6.556;2022-07-06T05:14:16;1.92;;;0.57;;
51907;SDS011;39320;53.214;6.556;2022-07-06T05:16:42;3.50;;;0.65;;
51907;SDS011;39320;53.214;6.556;2022-07-06T05:19:07;1.90;;;0.70;;
51907;SDS011;39320;53.214;6.556;2022-07-06T05:21:33;2.63;;;0.60;;
51907;SDS011;39320;53.214;6.556;2022-07-06T05:23:59;1.10;;;0.73;;
51907;SDS011;39320;53.214;6.556;2022-07-06T05:26:24;3.47;;;0.65;;
51907;SDS011;39320;53.214;6.556;2022-07-06T05:28:50;4.18;;;0.88;;
51907;SDS011;39320;53.214;6.556;2022-07-06T05:31:16;3.58;;;1.35;;
51907;SDS011;39320;53.214;6.556;2022-07-06T05:33:42;4.75;;;1.05;;
51907;SDS011;39320;53.214;6.556;2022-07-06T05:36:11;3.47;;;0.95;;
51907;SDS011;39320;53.214;6.556;2022-07-06T05:38:37;3.63;;;1.23;;
51907;SDS011;39320;53.214;6.556;2022-07-06T05:41:02;4.00;;;1.00;;
51907;SDS011;39320;53.214;6.556;2022-07-06T05:43:28;3.88;;;1.15;;
51907;SDS011;39320;53.214;6.556;2022-07-06T05:45:54;5.65;;;1.65;;
51907;SDS011;39320;53.214;6.556;2022-07-06T05:48:20;2.72;;;1.30;;
51907;SDS011;39320;53.214;6.556;2022-07-06T05:51:04;2.08;;;1.00;;
51907;SDS011;39320;53.214;6.556;2022-07-06T05:53:30;3.28;;;0.90;;
51907;SDS011;39320;53.214;6.556;2022-07-06T05:55:56;4.05;;;1.50;;
51907;SDS011;39320;53.214;6.556;2022-07-06T05:58:21;4.40;;;1.27;;
51907;SDS011;39320;53.214;6.556;2022-07-06T06:00:49;3.58;;;0.98;;
51907;SDS011;39320;53.214;6.556;2022-07-06T06:03:15;4.30;;;1.00;;
51907;SDS011;39320;53.214;6.556;2022-07-06T06:05:40;4.00;;;0.82;;
51907;SDS011;39320;53.214;6.556;2022-07-06T06:08:06;2.97;;;0.80;;
51907;SDS011;39320;53.214;6.556;2022-07-06T06:10:32;4.00;;;0.88;;
51907;SDS011;39320;53.214;6.556;2022-07-06T06:12:58;4.05;;;1.27;;
51907;SDS011;39320;53.214;6.556;2022-07-06T06:15:24;4.03;;;0.85;;
51907;SDS011;39320;53.214;6.556;2022-07-06T06:17:49;3.17;;;1.00;;
51907;SDS011;39320;53.214;6.556;2022-07-06T06:20:15;4.70;;;1.33;;
51907;SDS011;39320;53.214;6.556;2022-07-06T06:22:48;3.60;;;1.00;;
51907;SDS011;39320;53.214;6.556;2022-07-06T06:25:20;3.28;;;0.75;;
51907;SDS011;39320;53.214;6.556;2022-07-06T06:27:51;5.30;;;1.42;;
51907;SDS011;39320;53.214;6.556;2022-07-06T06:30:17;2.83;;;1.17;;
51907;SDS011;39320;53.214;6.556;2022-07-06T06:32:43;4.20;;;1.08;;
51907;SDS011;39320;53.214;6.556;2022-07-06T06:35:12;5.25;;;1.30;;
51907;SDS011;39320;53.214;6.556;2022-07-06T06:37:38;3.67;;;1.02;;
51907;SDS011;39320;53.214;6.556;2022-07-06T06:40:04;3.58;;;0.98;;
51907;SDS011;39320;53.214;6.556;2022-07-06T06:42:31;4.15;;;0.80;;
51907;SDS011;39320;53.214;6.556;2022-07-06T06:44:57;3.70;;;0.95;;
51907;SDS011;39320;53.214;6.556;2022-07-06T06:47:23;4.18;;;1.00;;
51907;SDS011;39320;53.214;6.556;2022-07-06T06:49:49;3.72;;;0.90;;
51907;SDS011;39320;53.214;6.556;2022-07-06T06:52:15;1.75;;;0.85;;
51907;SDS011;39320;53.214;6.556;2022-07-06T06:54:41;5.03;;;1.13;;
51907;SDS011;39320;53.214;6.556;2022-07-06T06:57:07;5.03;;;1.20;;
51907;SDS011;39320;53.214;6.556;2022-07-06T06:59:32;3.60;;;0.93;;
51907;SDS011;39320;53.214;6.556;2022-07-06T07:01:58;2.95;;;0.80;;
51907;SDS011;39320;53.214;6.556;2022-07-06T07:04:24;4.72;;;1.20;;
51907;SDS011;39320;53.214;6.556;2022-07-06T07:06:50;4.15;;;1.15;;
51907;SDS011;39320;53.214;6.556;2022-07-06T07:09:15;3.25;;;0.80;;
51907;SDS011;39320;53.214;6.556;2022-07-06T07:11:41;5.30;;;1.38;;
51907;SDS011;39320;53.214;6.556;2022-07-06T07:14:07;7.72;;;1.60;;
51907;SDS011;39320;53.214;6.556;2022-07-06T07:16:33;7.90;;;1.10;;
51907;SDS011;39320;53.214;6.556;2022-07-06T07:18:58;5.95;;;1.10;;
51907;SDS011;39320;53.214;6.556;2022-07-06T07:21:24;4.05;;;1.10;;
51907;SDS011;39320;53.214;6.556;2022-07-06T07:23:50;6.97;;;0.70;;
51907;SDS011;39320;53.214;6.556;2022-07-06T07:26:16;1.90;;;0.82;;
51907;SDS011;39320;53.214;6.556;2022-07-06T07:28:42;4.15;;;1.35;;
51907;SDS011;39320;53.214;6.556;2022-07-06T07:31:08;3.30;;;0.85;;
51907;SDS011;39320;53.214;6.556;2022-07-06T07:33:34;3.80;;;0.88;;
51907;SDS011;39320;53.214;6.556;2022-07-06T07:35:59;4.15;;;0.90;;
51907;SDS011;39320;53.214;6.556;2022-07-06T07:38:25;5.00;;;1.33;;
51907;SDS011;39320;53.214;6.556;2022-07-06T07:40:53;4.93;;;0.80;;
51907;SDS011;39320;53.214;6.556;2022-07-06T07:43:19;4.95;;;1.02;;
51907;SDS011;39320;53.214;6.556;2022-07-06T07:45:45;1.77;;;0.57;;
51907;SDS011;39320;53.214;6.556;2022-07-06T07:48:12;4.68;;;1.00;;
51907;SDS011;39320;53.214;6.556;2022-07-06T07:50:38;4.68;;;0.90;;
51907;SDS011;39320;53.214;6.556;2022-07-06T07:53:04;4.20;;;0.70;;
51907;SDS011;39320;53.214;6.556;2022-07-06T07:55:33;5.53;;;0.88;;
51907;SDS011;39320;53.214;6.556;2022-07-06T07:57:59;2.58;;;0.73;;
51907;SDS011;39320;53.214;6.556;2022-07-06T08:00:25;3.40;;;0.68;;
51907;SDS011;39320;53.214;6.556;2022-07-06T08:02:51;2.50;;;0.50;;
51907;SDS011;39320;53.214;6.556;2022-07-06T08:05:17;2.72;;;0.93;;
51907;SDS011;39320;53.214;6.556;2022-07-06T08:07:43;3.55;;;0.65;;
51907;SDS011;39320;53.214;6.556;2022-07-06T08:10:09;2.63;;;0.70;;
51907;SDS011;39320;53.214;6.556;2022-07-06T08:12:36;2.33;;;0.50;;
51907;SDS011;39320;53.214;6.556;2022-07-06T08:15:02;2.42;;;0.82;;
51907;SDS011;39320;53.214;6.556;2022-07-06T08:17:29;2.95;;;0.63;;
51907;SDS011;39320;53.214;6.556;2022-07-06T08:19:55;1.70;;;0.57;;
51907;SDS011;39320;53.214;6.556;2022-07-06T08:22:21;1.38;;;0.60;;
51907;SDS011;39320;53.214;6.556;2022-07-06T08:24:47;1.30;;;0.40;;
51907;SDS011;39320;53.214;6.556;2022-07-06T08:27:12;3.13;;;0.65;;
51907;SDS011;39320;53.214;6.556;2022-07-06T08:29:38;1.50;;;0.60;;
51907;SDS011;39320;53.214;6.556;2022-07-06T08:32:04;3.60;;;0.77;;
51907;SDS011;39320;53.214;6.556;2022-07-06T08:34:30;3.40;;;0.50;;
51907;SDS011;39320;53.214;6.556;2022-07-06T08:36:56;1.33;;;0.40;;
51907;SDS011;39320;53.214;6.556;2022-07-06T08:39:22;3.45;;;0.70;;
51907;SDS011;39320;53.214;6.556;2022-07-06T08:41:48;3.28;;;0.60;;
51907;SDS011;39320;53.214;6.556;2022-07-06T08:44:15;2.78;;;0.63;;
51907;SDS011;39320;53.214;6.556;2022-07-06T08:46:42;4.72;;;0.80;;
51907;SDS011;39320;53.214;6.556;2022-07-06T08:49:08;1.30;;;0.43;;
51907;SDS011;39320;53.214;6.556;2022-07-06T08:51:38;2.85;;;0.73;;
51907;SDS011;39320;53.214;6.556;2022-07-06T08:54:06;1.70;;;0.60;;
51907;SDS011;39320;53.214;6.556;2022-07-06T08:56:33;1.50;;;0.50;;
51907;SDS011;39320;53.214;6.556;2022-07-06T08:58:59;1.67;;;0.60;;
51907;SDS011;39320;53.214;6.556;2022-07-06T09:01:25;2.75;;;0.63;;
51907;SDS011;39320;53.214;6.556;2022-07-06T09:03:51;2.65;;;0.63;;
51907;SDS011;39320;53.214;6.556;2022-07-06T09:06:22;2.75;;;0.52;;
51907;SDS011;39320;53.214;6.556;2022-07-06T09:08:52;2.28;;;0.55;;
51907;SDS011;39320;53.214;6.556;2022-07-06T09:11:20;1.52;;;0.60;;
51907;SDS011;39320;53.214;6.556;2022-07-06T09:13:52;3.17;;;0.77;;
51907;SDS011;39320;53.214;6.556;2022-07-06T09:16:24;4.13;;;1.02;;
51907;SDS011;39320;53.214;6.556;2022-07-06T09:18:54;4.22;;;0.98;;
51907;SDS011;39320;53.214;6.556;2022-07-06T09:21:25;5.13;;;0.80;;
51907;SDS011;39320;53.214;6.556;2022-07-06T09:23:58;1.92;;;0.60;;
51907;SDS011;39320;53.214;6.556;2022-07-06T09:26:26;1.75;;;0.65;;
51907;SDS011;39320;53.214;6.556;2022-07-06T09:28:52;3.03;;;0.80;;
51907;SDS011;39320;53.214;6.556;2022-07-06T09:31:21;4.25;;;0.82;;
51907;SDS011;39320;53.214;6.556;2022-07-06T09:39:24;2.80;;;0.80;;
51907;SDS011;39320;53.214;6.556;2022-07-06T09:42:01;2.33;;;0.80;;
51907;SDS011;39320;53.214;6.556;2022-07-06T09:44:34;3.17;;;0.60;;
51907;SDS011;39320;53.214;6.556;2022-07-06T09:47:03;1.88;;;0.60;;
51907;SDS011;39320;53.214;6.556;2022-07-06T09:49:34;1.83;;;0.50;;
51907;SDS011;39320;53.214;6.556;2022-07-06T09:52:01;1.23;;;0.55;;
51907;SDS011;39320;53.214;6.556;2022-07-06T09:54:33;3.25;;;0.80;;
51907;SDS011;39320;53.214;6.556;2022-07-06T09:57:05;1.83;;;0.77;;
51907;SDS011;39320;53.214;6.556;2022-07-06T09:59:33;3.83;;;0.82;;
51907;SDS011;39320;53.214;6.556;2022-07-06T10:02:04;3.47;;;0.85;;
51907;SDS011;39320;53.214;6.556;2022-07-06T10:04:31;3.00;;;0.70;;
51907;SDS011;39320;53.214;6.556;2022-07-06T10:06:57;3.13;;;0.85;;
51907;SDS011;39320;53.214;6.556;2022-07-06T10:09:25;3.65;;;0.80;;
51907;SDS011;39320;53.214;6.556;2022-07-06T10:11:54;2.75;;;1.05;;
51907;SDS011;39320;53.214;6.556;2022-07-06T10:14:26;1.95;;;0.70;;
51907;SDS011;39320;53.214;6.556;2022-07-06T10:16:55;3.95;;;0.55;;
51907;SDS011;39320;53.214;6.556;2022-07-06T10:19:22;1.95;;;0.77;;
51907;SDS011;39320;53.214;6.556;2022-07-06T10:21:49;3.35;;;1.13;;
51907;SDS011;39320;53.214;6.556;2022-07-06T10:24:16;3.67;;;1.00;;
51907;SDS011;39320;53.214;6.556;2022-07-06T10:26:47;2.47;;;0.90;;
51907;SDS011;39320;53.214;6.556;2022-07-06T10:29:13;3.65;;;0.77;;
51907;SDS011;39320;53.214;6.556;2022-07-06T10:31:45;2.85;;;1.05;;
51907;SDS011;39320;53.214;6.556;2022-07-06T10:34:13;3.28;;;0.70;;
51907;SDS011;39320;53.214;6.556;2022-07-06T10:36:42;2.78;;;0.88;;
51907;SDS011;39320;53.214;6.556;2022-07-06T10:39:09;2.10;;;0.80;;
51907;SDS011;39320;53.214;6.556;2022-07-06T10:41:55;1.73;;;0.65;;
51907;SDS011;39320;53.214;6.556;2022-07-06T10:44:25;2.55;;;1.15;;
51907;SDS011;39320;53.214;6.556;2022-07-06T10:46:55;5.22;;;0.80;;
51907;SDS011;39320;53.214;6.556;2022-07-06T10:49:23;2.78;;;0.90;;
51907;SDS011;39320;53.214;6.556;2022-07-06T10:51:49;3.50;;;0.80;;
51907;SDS011;39320;53.214;6.556;2022-07-06T10:54:19;2.25;;;0.93;;
51907;SDS011;39320;53.214;6.556;2022-07-06T10:56:49;4.20;;;0.93;;
51907;SDS011;39320;53.214;6.556;2022-07-06T10:59:16;4.75;;;1.10;;
51907;SDS011;39320;53.214;6.556;2022-07-06T11:04:42;3.45;;;0.90;;
51907;SDS011;39320;53.214;6.556;2022-07-06T11:07:12;3.88;;;0.88;;
51907;SDS011;39320;53.214;6.556;2022-07-06T11:09:39;4.80;;;0.75;;
51907;SDS011;39320;53.214;6.556;2022-07-06T11:12:16;2.03;;;0.50;;
51907;SDS011;39320;53.214;6.556;2022-07-06T11:14:44;4.95;;;1.20;;
51907;SDS011;39320;53.214;6.556;2022-07-06T11:17:11;2.38;;;1.40;;
51907;SDS011;39320;53.214;6.556;2022-07-06T11:19:37;3.05;;;0.80;;
51907;SDS011;39320;53.214;6.556;2022-07-06T11:22:08;3.08;;;0.63;;
51907;SDS011;39320;53.214;6.556;2022-07-06T11:24:40;2.72;;;0.75;;
51907;SDS011;39320;53.214;6.556;2022-07-06T11:27:07;2.90;;;0.85;;
51907;SDS011;39320;53.214;6.556;2022-07-06T11:29:33;1.35;;;0.70;;
51907;SDS011;39320;53.214;6.556;2022-07-06T11:32:02;3.10;;;0.70;;
51907;SDS011;39320;53.214;6.556;2022-07-06T11:37:00;2.00;;;0.65;;
51907;SDS011;39320;53.214;6.556;2022-07-06T11:39:28;2.72;;;0.82;;
51907;SDS011;39320;53.214;6.556;2022-07-06T11:41:56;2.65;;;1.25;;
51907;SDS011;39320;53.214;6.556;2022-07-06T11:44:22;3.20;;;0.90;;
51907;SDS011;39320;53.214;6.556;2022-07-06T11:46:51;1.58;;;0.50;;
51907;SDS011;39320;53.214;6.556;2022-07-06T11:49:17;3.90;;;0.65;;
51907;SDS011;39320;53.214;6.556;2022-07-06T11:51:44;3.50;;;1.60;;
51907;SDS011;39320;53.214;6.556;2022-07-06T11:54:15;1.77;;;0.60;;
51907;SDS011;39320;53.214;6.556;2022-07-06T11:56:46;1.45;;;0.60;;
51907;SDS011;39320;53.214;6.556;2022-07-06T11:59:12;1.90;;;0.68;;
51907;SDS011;39320;53.214;6.556;2022-07-06T12:01:40;3.78;;;0.80;;
51907;SDS011;39320;53.214;6.556;2022-07-06T12:04:09;2.03;;;0.60;;
51907;SDS011;39320;53.214;6.556;2022-07-06T12:06:35;3.05;;;0.77;;
51907;SDS011;39320;53.214;6.556;2022-07-06T12:09:01;2.38;;;0.63;;
51907;SDS011;39320;53.214;6.556;2022-07-06T12:11:35;1.65;;;0.70;;
51907;SDS011;39320;53.214;6.556;2022-07-06T12:14:03;4.15;;;0.85;;
51907;SDS011;39320;53.214;6.556;2022-07-06T12:16:40;2.08;;;0.73;;
51907;SDS011;39320;53.214;6.556;2022-07-06T12:19:06;3.95;;;1.17;;
51907;SDS011;39320;53.214;6.556;2022-07-06T12:21:36;2.60;;;0.70;;
51907;SDS011;39320;53.214;6.556;2022-07-06T12:24:25;2.55;;;0.70;;
51907;SDS011;39320;53.214;6.556;2022-07-06T12:26:53;2.55;;;0.60;;
51907;SDS011;39320;53.214;6.556;2022-07-06T12:29:20;2.75;;;0.70;;
51907;SDS011;39320;53.214;6.556;2022-07-06T12:34:14;3.13;;;0.70;;
51907;SDS011;39320;53.214;6.556;2022-07-06T12:36:46;0.95;;;0.57;;
51907;SDS011;39320;53.214;6.556;2022-07-06T12:39:13;2.47;;;0.50;;
51907;SDS011;39320;53.214;6.556;2022-07-06T12:41:46;2.40;;;0.75;;
51907;SDS011;39320;53.214;6.556;2022-07-06T12:44:20;3.05;;;0.77;;
51907;SDS011;39320;53.214;6.556;2022-07-06T12:46:47;4.03;;;0.75;;
51907;SDS011;39320;53.214;6.556;2022-07-06T12:49:26;2.45;;;1.00;;
51907;SDS011;39320;53.214;6.556;2022-07-06T12:51:59;2.08;;;0.75;;
51907;SDS011;39320;53.214;6.556;2022-07-06T12:57:21;6.18;;;1.10;;
51907;SDS011;39320;53.214;6.556;2022-07-06T13:04:55;3.88;;;0.80;;
51907;SDS011;39320;53.214;6.556;2022-07-06T13:07:21;4.85;;;0.80;;
51907;SDS011;39320;53.214;6.556;2022-07-06T13:09:47;3.40;;;0.70;;
51907;SDS011;39320;53.214;6.556;2022-07-06T13:12:13;1.00;;;0.70;;
51907;SDS011;39320;53.214;6.556;2022-07-06T13:14:38;2.90;;;0.75;;
51907;SDS011;39320;53.214;6.556;2022-07-06T13:17:07;1.58;;;0.80;;
51907;SDS011;39320;53.214;6.556;2022-07-06T13:19:33;1.65;;;0.60;;
51907;SDS011;39320;53.214;6.556;2022-07-06T13:21:59;3.95;;;0.88;;
51907;SDS011;39320;53.214;6.556;2022-07-06T13:24:25;2.38;;;0.90;;
51907;SDS011;39320;53.214;6.556;2022-07-06T13:26:53;2.50;;;0.90;;
51907;SDS011;39320;53.214;6.556;2022-07-06T13:29:20;2.38;;;0.50;;
51907;SDS011;39320;53.214;6.556;2022-07-06T13:31:46;3.72;;;0.75;;
51907;SDS011;39320;53.214;6.556;2022-07-06T13:34:12;2.42;;;0.80;;
51907;SDS011;39320;53.214;6.556;2022-07-06T13:36:38;2.38;;;1.08;;
51907;SDS011;39320;53.214;6.556;2022-07-06T13:39:05;1.08;;;0.80;;
51907;SDS011;39320;53.214;6.556;2022-07-06T13:41:32;2.17;;;0.80;;
51907;SDS011;39320;53.214;6.556;2022-07-06T13:43:58;1.35;;;0.80;;
51907;SDS011;39320;53.214;6.556;2022-07-06T13:46:26;2.85;;;1.10;;
51907;SDS011;39320;53.214;6.556;2022-07-06T13:48:57;3.85;;;1.38;;
51907;SDS011;39320;53.214;6.556;2022-07-06T13:51:24;2.80;;;1.00;;
51907;SDS011;39320;53.214;6.556;2022-07-06T13:53:51;3.75;;;1.08;;
51907;SDS011;39320;53.214;6.556;2022-07-06T13:56:18;5.15;;;0.75;;
51907;SDS011;39320;53.214;6.556;2022-07-06T13:58:44;3.03;;;0.90;;
51907;SDS011;39320;53.214;6.556;2022-07-06T14:01:10;2.22;;;0.75;;
51907;SDS011;39320;53.214;6.556;2022-07-06T14:03:36;3.80;;;0.90;;
51907;SDS011;39320;53.214;6.556;2022-07-06T14:06:03;1.33;;;0.70;;
51907;SDS011;39320;53.214;6.556;2022-07-06T14:08:32;2.05;;;0.93;;
51907;SDS011;39320;53.214;6.556;2022-07-06T14:10:58;3.88;;;0.65;;
51907;SDS011;39320;53.214;6.556;2022-07-06T14:13:24;3.42;;;1.48;;
51907;SDS011;39320;53.214;6.556;2022-07-06T14:15:50;2.20;;;0.70;;
51907;SDS011;39320;53.214;6.556;2022-07-06T14:18:16;2.17;;;1.10;;
51907;SDS011;39320;53.214;6.556;2022-07-06T14:20:49;1.48;;;0.80;;
51907;SDS011;39320;53.214;6.556;2022-07-06T14:23:16;1.80;;;0.98;;
51907;SDS011;39320;53.214;6.556;2022-07-06T14:25:42;2.15;;;0.98;;
51907;SDS011;39320;53.214;6.556;2022-07-06T14:28:11;3.78;;;1.50;;
51907;SDS011;39320;53.214;6.556;2022-07-06T14:30:40;2.80;;;1.20;;
51907;SDS011;39320;53.214;6.556;2022-07-06T14:33:07;2.72;;;1.08;;
51907;SDS011;39320;53.214;6.556;2022-07-06T14:38:00;3.47;;;1.20;;
51907;SDS011;39320;53.214;6.556;2022-07-06T14:40:26;5.32;;;1.23;;
51907;SDS011;39320;53.214;6.556;2022-07-06T14:42:53;4.00;;;1.20;;
51907;SDS011;39320;53.214;6.556;2022-07-06T14:45:18;3.30;;;1.27;;
51907;SDS011;39320;53.214;6.556;2022-07-06T14:47:44;3.28;;;1.20;;
51907;SDS011;39320;53.214;6.556;2022-07-06T14:50:10;3.17;;;1.20;;
51907;SDS011;39320;53.214;6.556;2022-07-06T14:52:36;4.03;;;1.50;;
51907;SDS011;39320;53.214;6.556;2022-07-06T14:55:02;2.67;;;1.30;;
51907;SDS011;39320;53.214;6.556;2022-07-06T14:57:28;4.60;;;0.90;;
51907;SDS011;39320;53.214;6.556;2022-07-06T14:59:54;2.83;;;1.50;;
51907;SDS011;39320;53.214;6.556;2022-07-06T15:02:20;6.15;;;2.08;;
51907;SDS011;39320;53.214;6.556;2022-07-06T15:04:46;5.05;;;1.85;;
51907;SDS011;39320;53.214;6.556;2022-07-06T15:07:11;4.35;;;2.47;;
51907;SDS011;39320;53.214;6.556;2022-07-06T15:09:37;5.80;;;2.22;;
51907;SDS011;39320;53.214;6.556;2022-07-06T15:12:03;3.28;;;1.88;;